Time;durP1;ratioP1;P1;durP2;ratioP2;P2;SDS_P1;SDS_P2;PMS_P1;PMS_P2;Temp;Humidity;BMP_temperature;BMP_pressure;BME280_temperature;BME280_humidity;BME280_pressure;Samples;Min_cycle;Max_cycle;Signal;HPM_P1;HPM_P2
2020/09/07 00:01:37;;;;;;;0.9;0.7;;;;;;;;;;;;;
2020/09/07 00:04:02;;;;;;;0.5;0.4;;;;;;;;;;;;;
2020/09/07 00:06:28;;;;;;;0.5;0.4;;;;;;;;;;;;;
2020/09/07 00:08:53;;;;;;;2.4;0.9;;;;;;;;;;;;;
2020/09/07 00:11:19;;;;;;;0.3;0.3;;;;;;;;;;;;;
2020/09/07 00:13:44;;;;;;;1;0.5;;;;;;;;;;;;;
2020/09/07 00:16:09;;;;;;;0.6;0.5;;;;;;;;;;;;;
2020/09/07 00:18:34;;;;;;;0.3;0.3;;;;;;;;;;;;;
2020/09/07 00:20:59;;;;;;;0.9;0.6;;;;;;;;;;;;;
2020/09/07 00:23:25;;;;;;;0.5;0.4;;;;;;;;;;;;;
2020/09/07 00:25:50;;;;;;;1.4;0.6;;;;;;;;;;;;;
2020/09/07 00:28:15;;;;;;;0.4;0.3;;;;;;;;;;;;;
2020/09/07 00:30:40;;;;;;;0.4;0.4;;;;;;;;;;;;;
2020/09/07 00:33:06;;;;;;;1.8;0.9;;;;;;;;;;;;;
2020/09/07 00:35:31;;;;;;;1.7;0.8;;;;;;;;;;;;;
2020/09/07 00:37:56;;;;;;;1.2;0.4;;;;;;;;;;;;;
2020/09/07 00:40:21;;;;;;;0.7;0.6;;;;;;;;;;;;;
2020/09/07 00:42:46;;;;;;;0.3;0.3;;;;;;;;;;;;;
2020/09/07 00:45:11;;;;;;;0.3;0.3;;;;;;;;;;;;;
2020/09/07 00:47:36;;;;;;;0.5;0.2;;;;;;;;;;;;;
2020/09/07 00:50:02;;;;;;;0.3;0.3;;;;;;;;;;;;;
2020/09/07 00:52:27;;;;;;;1;0.6;;;;;;;;;;;;;
2020/09/07 00:54:53;;;;;;;0.5;0.5;;;;;;;;;;;;;
2020/09/07 00:57:23;;;;;;;0.5;0.4;;;;;;;;;;;;;
2020/09/07 00:59:45;;;;;;;0.7;0.5;;;;;;;;;;;;;
2020/09/07 01:02:10;;;;;;;2.8;0.9;;;;;;;;;;;;;
2020/09/07 01:04:35;;;;;;;0.6;0.5;;;;;;;;;;;;;
2020/09/07 01:07:00;;;;;;;0.6;0.6;;;;;;;;;;;;;
2020/09/07 01:09:25;;;;;;;3.3;0.5;;;;;;;;;;;;;
2020/09/07 01:11:50;;;;;;;1.2;0.7;;;;;;;;;;;;;
2020/09/07 01:14:15;;;;;;;0.2;0.2;;;;;;;;;;;;;
2020/09/07 01:16:41;;;;;;;0.3;0.2;;;;;;;;;;;;;
2020/09/07 01:19:07;;;;;;;0.8;0.5;;;;;;;;;;;;;
2020/09/07 01:21:34;;;;;;;0.6;0.3;;;;;;;;;;;;;
2020/09/07 01:23:59;;;;;;;0.5;0.4;;;;;;;;;;;;;
2020/09/07 01:26:25;;;;;;;0.3;0.3;;;;;;;;;;;;;
2020/09/07 01:28:51;;;;;;;0.6;0.4;;;;;;;;;;;;;
2020/09/07 01:31:18;;;;;;;0.2;0.2;;;;;;;;;;;;;
2020/09/07 01:33:43;;;;;;;0.4;0.3;;;;;;;;;;;;;
2020/09/07 01:36:08;;;;;;;0.5;0.4;;;;;;;;;;;;;
2020/09/07 01:38:33;;;;;;;0.8;0.4;;;;;;;;;;;;;
2020/09/07 01:41:00;;;;;;;0.4;0.4;;;;;;;;;;;;;
2020/09/07 01:43:27;;;;;;;0.4;0.3;;;;;;;;;;;;;
2020/09/07 01:45:52;;;;;;;0.4;0.4;;;;;;;;;;;;;
2020/09/07 01:48:17;;;;;;;0.3;0.3;;;;;;;;;;;;;
2020/09/07 01:50:42;;;;;;;0.2;0.2;;;;;;;;;;;;;
2020/09/07 01:53:07;;;;;;;0.4;0.3;;;;;;;;;;;;;
2020/09/07 01:55:32;;;;;;;0.3;0.3;;;;;;;;;;;;;
2020/09/07 01:57:58;;;;;;;1.2;0.3;;;;;;;;;;;;;
2020/09/07 02:00:30;;;;;;;0.5;0.5;;;;;;;;;;;;;
2020/09/07 02:02:49;;;;;;;1.4;0.7;;;;;;;;;;;;;
2020/09/07 02:05:16;;;;;;;0.8;0.5;;;;;;;;;;;;;
2020/09/07 02:07:41;;;;;;;0.5;0.3;;;;;;;;;;;;;
2020/09/07 02:10:06;;;;;;;0.5;0.4;;;;;;;;;;;;;
2020/09/07 02:12:31;;;;;;;0.8;0.7;;;;;;;;;;;;;
2020/09/07 02:14:57;;;;;;;3.2;0.6;;;;;;;;;;;;;
2020/09/07 02:17:22;;;;;;;0.6;0.6;;;;;;;;;;;;;
2020/09/07 02:19:51;;;;;;;0.5;0.5;;;;;;;;;;;;;
2020/09/07 02:22:17;;;;;;;0.5;0.5;;;;;;;;;;;;;
2020/09/07 02:24:41;;;;;;;0.9;0.5;;;;;;;;;;;;;
2020/09/07 02:27:08;;;;;;;0.3;0.3;;;;;;;;;;;;;
2020/09/07 02:29:32;;;;;;;0.9;0.4;;;;;;;;;;;;;
2020/09/07 02:31:57;;;;;;;1.1;0.6;;;;;;;;;;;;;
2020/09/07 02:34:24;;;;;;;0.8;0.6;;;;;;;;;;;;;
2020/09/07 02:36:49;;;;;;;0.7;0.5;;;;;;;;;;;;;
2020/09/07 02:39:15;;;;;;;0.6;0.4;;;;;;;;;;;;;
2020/09/07 02:41:40;;;;;;;0.7;0.4;;;;;;;;;;;;;
2020/09/07 02:44:06;;;;;;;0.3;0.3;;;;;;;;;;;;;
2020/09/07 02:46:31;;;;;;;0.7;0.4;;;;;;;;;;;;;
2020/09/07 02:48:58;;;;;;;0.8;0.5;;;;;;;;;;;;;
2020/09/07 02:51:23;;;;;;;0.5;0.5;;;;;;;;;;;;;
2020/09/07 02:53:48;;;;;;;0.3;0.3;;;;;;;;;;;;;
2020/09/07 02:56:13;;;;;;;0.4;0.4;;;;;;;;;;;;;
2020/09/07 02:58:39;;;;;;;1.7;0.4;;;;;;;;;;;;;
2020/09/07 03:01:04;;;;;;;6.7;0.5;;;;;;;;;;;;;
2020/09/07 03:03:29;;;;;;;0.5;0.4;;;;;;;;;;;;;
2020/09/07 03:05:54;;;;;;;0.4;0.3;;;;;;;;;;;;;
2020/09/07 03:13:09;;;;;;;1;0.6;;;;;;;;;;;;;
2020/09/07 03:15:36;;;;;;;0.3;0.3;;;;;;;;;;;;;
2020/09/07 03:18:01;;;;;;;0.4;0.4;;;;;;;;;;;;;
2020/09/07 03:20:30;;;;;;;0.7;0.5;;;;;;;;;;;;;
2020/09/07 03:22:55;;;;;;;0.8;0.7;;;;;;;;;;;;;
2020/09/07 03:25:21;;;;;;;1.4;0.6;;;;;;;;;;;;;
2020/09/07 03:27:46;;;;;;;0.9;0.6;;;;;;;;;;;;;
2020/09/07 03:30:11;;;;;;;1.1;0.5;;;;;;;;;;;;;
2020/09/07 03:32:36;;;;;;;0.8;0.6;;;;;;;;;;;;;
2020/09/07 03:35:06;;;;;;;0.6;0.6;;;;;;;;;;;;;
2020/09/07 03:37:32;;;;;;;0.9;0.5;;;;;;;;;;;;;
2020/09/07 03:39:57;;;;;;;1;0.5;;;;;;;;;;;;;
2020/09/07 03:42:22;;;;;;;0.9;0.4;;;;;;;;;;;;;
2020/09/07 03:44:47;;;;;;;1.1;0.7;;;;;;;;;;;;;
2020/09/07 03:47:12;;;;;;;2.1;0.7;;;;;;;;;;;;;
2020/09/07 03:49:38;;;;;;;1.1;0.5;;;;;;;;;;;;;
2020/09/07 03:52:03;;;;;;;0.9;0.5;;;;;;;;;;;;;
2020/09/07 03:54:28;;;;;;;0.4;0.4;;;;;;;;;;;;;
2020/09/07 03:56:53;;;;;;;0.9;0.6;;;;;;;;;;;;;
2020/09/07 03:59:18;;;;;;;1.4;0.8;;;;;;;;;;;;;
2020/09/07 04:02:37;;;;;;;0.7;0.6;;;;;;;13.7;86.56836;941.3155;;;;
2020/09/07 04:05:05;;;;;;;1.4;0.7;;;;;;;13.72;86.37793;941.3259;;;;
2020/09/07 04:07:30;;;;;;;0.4;0.4;;;;;;;13.72;86.43555;941.366;;;;
2020/09/07 04:09:55;;;;;;;0.6;0.4;;;;;;;13.75;86.56738;941.3461;;;;
2020/09/07 04:12:20;;;;;;;1.1;0.5;;;;;;;13.65;86.38672;941.2746;;;;
2020/09/07 04:14:45;;;;;;;3;0.6;;;;;;;13.62;87.14941;941.2857;;;;
2020/09/07 04:17:10;;;;;;;0.3;0.3;;;;;;;13.68;87.00293;941.4371;;;;
2020/09/07 04:19:36;;;;;;;0.9;0.6;;;;;;;13.61;86.81641;941.3663;;;;
2020/09/07 04:22:01;;;;;;;1;0.6;;;;;;;13.61;86.88379;941.451;;;;
2020/09/07 04:24:26;;;;;;;0.5;0.5;;;;;;;13.61;86.86035;941.3758;;;;
2020/09/07 04:26:51;;;;;;;0.7;0.6;;;;;;;13.64;86.61523;941.4738;;;;
2020/09/07 04:29:27;;;;;;;3.1;0.8;;;;;;;13.69;86.2002;941.4964;;;;
2020/09/07 04:31:52;;;;;;;0.6;0.6;;;;;;;13.69;85.86621;941.5132;;;;
2020/09/07 04:34:19;;;;;;;0.8;0.7;;;;;;;13.73;86.17285;941.5284;;;;
2020/09/07 04:36:44;;;;;;;0.8;0.5;;;;;;;13.7;86.28223;941.4523;;;;
2020/09/07 04:39:14;;;;;;;0.5;0.5;;;;;;;13.7;86.40918;941.49;;;;
2020/09/07 04:41:39;;;;;;;0.6;0.5;;;;;;;13.77;86.1582;941.503;;;;
2020/09/07 04:44:10;;;;;;;0.8;0.5;;;;;;;13.77;86.2373;941.5109;;;;
2020/09/07 04:46:41;;;;;;;2.9;0.8;;;;;;;13.76;86.00684;941.4894;;;;
2020/09/07 04:49:06;;;;;;;0.8;0.7;;;;;;;13.76;86.22363;941.5469;;;;
2020/09/07 04:51:31;;;;;;;0.9;0.6;;;;;;;13.76;86.12012;941.5717;;;;
2020/09/07 04:53:56;;;;;;;0.4;0.4;;;;;;;13.85;86.23047;941.6019;;;;
2020/09/07 04:56:21;;;;;;;1.1;0.8;;;;;;;13.98;85.7373;941.5917;;;;
2020/09/07 04:58:47;;;;;;;3.4;0.7;;;;;;;14.04;84.96875;941.6353;;;;
2020/09/07 05:01:15;;;;;;;1.5;0.7;;;;;;;14.12;84.67383;941.666;;;;
2020/09/07 05:03:40;;;;;;;0.7;0.7;;;;;;;14.13;84.84668;941.6139;;;;
2020/09/07 05:06:05;;;;;;;2.1;0.7;;;;;;;13.95;86.01953;941.6445;;;;
2020/09/07 05:08:35;;;;;;;0.9;0.6;;;;;;;13.76;86.86816;941.6518;;;;
2020/09/07 05:11:05;;;;;;;1.3;0.6;;;;;;;13.61;87.13672;941.6158;;;;
2020/09/07 05:13:33;;;;;;;1.2;0.7;;;;;;;13.36;87.98438;941.6699;;;;
2020/09/07 05:15:58;;;;;;;0.7;0.7;;;;;;;13.51;88.01563;941.6267;;;;
2020/09/07 05:18:24;;;;;;;0.5;0.5;;;;;;;13.7;87.55762;941.7213;;;;
2020/09/07 05:20:49;;;;;;;0.8;0.7;;;;;;;13.83;87.71094;941.7419;;;;
2020/09/07 05:23:24;;;;;;;0.7;0.6;;;;;;;13.89;86.99902;941.7237;;;;
2020/09/07 05:25:50;;;;;;;1.3;0.8;;;;;;;14.01;86.75781;941.7424;;;;
2020/09/07 05:28:15;;;;;;;1.5;0.6;;;;;;;14.05;86.92578;941.7034;;;;
2020/09/07 05:30:40;;;;;;;0.9;0.7;;;;;;;14.12;85.77734;941.7828;;;;
2020/09/07 05:33:05;;;;;;;0.3;0.3;;;;;;;14.14;85.1709;941.774;;;;
2020/09/07 05:35:30;;;;;;;0.7;0.6;;;;;;;14.03;85.0918;941.7811;;;;
2020/09/07 05:37:57;;;;;;;1.1;0.7;;;;;;;14.12;85.07715;941.7308;;;;
2020/09/07 05:40:31;;;;;;;0.7;0.6;;;;;;;14.06;85.4082;941.6138;;;;
2020/09/07 05:42:57;;;;;;;0.6;0.5;;;;;;;13.94;86.8584;941.731;;;;
2020/09/07 05:45:25;;;;;;;1.4;0.9;;;;;;;13.92;87.37207;941.7181;;;;
2020/09/07 05:47:50;;;;;;;0.6;0.6;;;;;;;13.7;87.2002;941.7517;;;;
2020/09/07 05:50:15;;;;;;;0.8;0.6;;;;;;;13.74;87.42871;941.7022;;;;
2020/09/07 05:52:40;;;;;;;0.5;0.5;;;;;;;13.91;86.65723;941.7981;;;;
2020/09/07 05:55:06;;;;;;;1.4;0.8;;;;;;;14.02;87.21973;941.7386;;;;
2020/09/07 05:57:32;;;;;;;1.4;1;;;;;;;13.99;86.86914;941.7695;;;;
2020/09/07 05:59:57;;;;;;;0.9;0.8;;;;;;;13.93;86.4541;941.8206;;;;
2020/09/07 06:02:28;;;;;;;1;0.8;;;;;;;13.92;86.17578;941.8502;;;;
2020/09/07 06:05:00;;;;;;;1;0.8;;;;;;;13.86;86.12891;941.9102;;;;
2020/09/07 06:07:25;;;;;;;0.5;0.5;;;;;;;13.95;86.54883;941.8815;;;;
2020/09/07 06:09:54;;;;;;;1.5;0.7;;;;;;;14.03;85.93262;941.8995;;;;
2020/09/07 06:12:19;;;;;;;0.9;0.7;;;;;;;13.94;85.83594;941.9736;;;;
2020/09/07 06:14:45;;;;;;;0.7;0.7;;;;;;;14.1;85.08301;941.9894;;;;
2020/09/07 06:17:11;;;;;;;2.1;1;;;;;;;14.17;85.29297;942.0616;;;;
2020/09/07 06:19:43;;;;;;;1.9;0.7;;;;;;;14.21;86.64746;942.0801;;;;
2020/09/07 06:22:08;;;;;;;1;0.9;;;;;;;14.24;86.50488;942.1453;;;;
2020/09/07 06:24:33;;;;;;;1.1;0.9;;;;;;;14.29;86.26074;942.1222;;;;
2020/09/07 06:27:07;;;;;;;1.1;0.5;;;;;;;14.31;84.5498;942.087;;;;
2020/09/07 06:29:39;;;;;;;2.1;1.5;;;;;;;14.26;85.12793;942.1909;;;;
2020/09/07 06:32:10;;;;;;;1.4;0.8;;;;;;;14.18;84.24512;942.1873;;;;
2020/09/07 06:34:35;;;;;;;1.6;1;;;;;;;14.1;85.18652;942.1359;;;;
2020/09/07 06:37:00;;;;;;;1.2;0.8;;;;;;;14.22;86.13281;942.2719;;;;
2020/09/07 06:39:32;;;;;;;1.8;1.2;;;;;;;14.23;85.69531;942.2631;;;;
2020/09/07 06:42:01;;;;;;;0.8;0.5;;;;;;;14.31;86.43848;942.2872;;;;
2020/09/07 06:44:26;;;;;;;1.1;1;;;;;;;14.36;86.05566;942.3169;;;;
2020/09/07 06:46:51;;;;;;;1.1;0.8;;;;;;;14.44;84.74707;942.3264;;;;
2020/09/07 06:49:20;;;;;;;1.6;1;;;;;;;14.52;85.1543;942.2816;;;;
2020/09/07 06:51:56;;;;;;;1.1;0.8;;;;;;;14.6;83.91211;942.2961;;;;
2020/09/07 06:54:22;;;;;;;1.8;0.9;;;;;;;14.63;82.63965;942.3348;;;;
2020/09/07 06:56:51;;;;;;;4.1;0.8;;;;;;;14.69;82.43164;942.2523;;;;
2020/09/07 06:59:16;;;;;;;1.5;1;;;;;;;14.78;82.92285;942.3236;;;;
2020/09/07 07:01:44;;;;;;;6.1;1.2;;;;;;;14.88;83.24121;942.3672;;;;
2020/09/07 07:04:10;;;;;;;1.2;0.9;;;;;;;14.86;81.20703;942.3817;;;;
2020/09/07 07:06:35;;;;;;;1.8;1.1;;;;;;;14.94;81.46387;942.4537;;;;
2020/09/07 07:09:00;;;;;;;1.7;0.7;;;;;;;15.05;82.96094;942.4459;;;;
2020/09/07 07:11:25;;;;;;;2.2;0.8;;;;;;;15.1;82.91309;942.3672;;;;
2020/09/07 07:13:50;;;;;;;3.7;1.1;;;;;;;15.05;81.92285;942.4651;;;;
2020/09/07 07:16:18;;;;;;;1.6;1.1;;;;;;;14.86;81.95605;942.4522;;;;
2020/09/07 07:18:44;;;;;;;1.9;1;;;;;;;15;83.6084;942.4104;;;;
2020/09/07 07:21:09;;;;;;;1.4;0.9;;;;;;;15.11;80.98633;942.3392;;;;
2020/09/07 07:23:36;;;;;;;1.1;0.8;;;;;;;15.08;80.63672;942.4283;;;;
2020/09/07 07:26:01;;;;;;;1.2;0.9;;;;;;;15.05;80.29785;942.4339;;;;
2020/09/07 07:28:27;;;;;;;1.8;0.8;;;;;;;15.08;82.81641;942.3994;;;;
2020/09/07 07:30:51;;;;;;;1;0.7;;;;;;;15.37;80.86328;942.3526;;;;
2020/09/07 07:33:18;;;;;;;3.1;1;;;;;;;15.59;81.32129;942.3502;;;;
2020/09/07 07:35:43;;;;;;;1;0.9;;;;;;;15.7;80.30176;942.3292;;;;
2020/09/07 07:38:13;;;;;;;1.6;1;;;;;;;15.59;81.78027;942.3445;;;;
2020/09/07 07:40:39;;;;;;;1.5;0.8;;;;;;;15.17;82.18652;942.3262;;;;
2020/09/07 07:43:05;;;;;;;1.2;0.7;;;;;;;15.56;80.94336;942.3211;;;;
2020/09/07 07:45:32;;;;;;;1.3;1;;;;;;;15.59;81.46973;942.3791;;;;
2020/09/07 07:47:57;;;;;;;2.7;1;;;;;;;15.5;81.90332;942.4183;;;;
2020/09/07 07:50:22;;;;;;;3.8;0.6;;;;;;;15.66;81.08887;942.3823;;;;
2020/09/07 07:52:47;;;;;;;1.1;0.7;;;;;;;15.75;78.33398;942.39;;;;
2020/09/07 07:55:12;;;;;;;1.2;0.8;;;;;;;15.99;79.42773;942.4135;;;;
2020/09/07 07:57:37;;;;;;;0.6;0.6;;;;;;;16.09;78.39551;942.4702;;;;
2020/09/07 08:00:02;;;;;;;0.8;0.7;;;;;;;16.17;78.58203;942.5856;;;;
2020/09/07 08:02:28;;;;;;;0.5;0.5;;;;;;;16.2;77.44336;942.6433;;;;
2020/09/07 08:04:53;;;;;;;1.1;0.6;;;;;;;16.14;75.19922;942.662;;;;
2020/09/07 08:07:19;;;;;;;0.7;0.6;;;;;;;16.03;77.58594;942.6512;;;;
2020/09/07 08:09:44;;;;;;;0.5;0.4;;;;;;;16.21;77.29297;942.5661;;;;
2020/09/07 08:12:10;;;;;;;0.6;0.6;;;;;;;16.25;76.08594;942.6955;;;;
2020/09/07 08:14:35;;;;;;;0.7;0.6;;;;;;;16.14;78.29883;942.6459;;;;
2020/09/07 08:17:03;;;;;;;0.6;0.6;;;;;;;16.22;74.50781;942.7158;;;;
2020/09/07 08:19:28;;;;;;;0.6;0.6;;;;;;;16;77.08398;942.7274;;;;
2020/09/07 08:21:53;;;;;;;0.7;0.6;;;;;;;15.94;77.52344;942.7076;;;;
2020/09/07 08:24:19;;;;;;;1.2;0.7;;;;;;;16.04;76.46582;942.6786;;;;
2020/09/07 08:26:44;;;;;;;1.2;0.7;;;;;;;16.31;75.53027;942.8069;;;;
2020/09/07 08:29:10;;;;;;;1.5;1.1;;;;;;;16.5;75.79297;942.8431;;;;
2020/09/07 08:31:37;;;;;;;1.6;0.9;;;;;;;16.62;73.61426;942.8809;;;;
2020/09/07 08:34:01;;;;;;;0.8;0.5;;;;;;;16.79;73.72461;942.8795;;;;
2020/09/07 08:36:26;;;;;;;1.6;1;;;;;;;16.94;75.08105;942.9013;;;;
2020/09/07 08:38:52;;;;;;;0.7;0.7;;;;;;;17.17;72.25977;942.9303;;;;
2020/09/07 08:41:18;;;;;;;2.8;0.8;;;;;;;17.45;72.6748;942.938;;;;
2020/09/07 08:43:44;;;;;;;1.9;0.9;;;;;;;17.72;72.9043;942.9158;;;;
2020/09/07 08:46:08;;;;;;;0.7;0.6;;;;;;;17.86;71.30371;942.9604;;;;
2020/09/07 08:48:33;;;;;;;3.2;0.8;;;;;;;18.02;70.3877;942.9598;;;;
2020/09/07 08:50:58;;;;;;;1.1;0.8;;;;;;;17.63;72.6123;942.9446;;;;
2020/09/07 08:53:23;;;;;;;2;1.2;;;;;;;17.8;72.43164;942.8939;;;;
2020/09/07 08:55:50;;;;;;;1.1;0.6;;;;;;;17.71;72.05664;942.9771;;;;
2020/09/07 08:58:15;;;;;;;1.2;0.8;;;;;;;17.89;71.58691;943.0206;;;;
2020/09/07 09:00:44;;;;;;;0.7;0.5;;;;;;;17.7;71.18359;943.0691;;;;
2020/09/07 09:03:09;;;;;;;0.7;0.6;;;;;;;17.7;72.29883;943.0586;;;;
2020/09/07 09:05:36;;;;;;;1.1;0.8;;;;;;;17.64;71.5;943.1483;;;;
2020/09/07 09:08:01;;;;;;;0.7;0.7;;;;;;;17.49;70.7666;943.1639;;;;
2020/09/07 09:10:26;;;;;;;1.3;0.7;;;;;;;17.27;72.22754;943.1431;;;;
2020/09/07 09:12:53;;;;;;;1.3;0.5;;;;;;;17.43;72.02148;943.0744;;;;
2020/09/07 09:15:18;;;;;;;1;0.7;;;;;;;17.31;72.44238;943.1717;;;;
2020/09/07 09:17:45;;;;;;;1;0.7;;;;;;;17.33;72.91113;943.1554;;;;
2020/09/07 09:20:10;;;;;;;1.2;0.9;;;;;;;17.22;73.13672;943.1644;;;;
2020/09/07 09:22:36;;;;;;;1;0.7;;;;;;;17.25;73.97559;943.1916;;;;
2020/09/07 09:25:03;;;;;;;1.1;0.9;;;;;;;17.22;75.90625;943.2011;;;;
2020/09/07 09:27:27;;;;;;;1.7;1.2;;;;;;;17.06;75.35645;943.204;;;;
2020/09/07 09:29:52;;;;;;;1.6;0.9;;;;;;;16.88;76.27539;943.2395;;;;
2020/09/07 09:32:17;;;;;;;1.3;0.9;;;;;;;17.2;74.99805;943.2464;;;;
2020/09/07 09:34:43;;;;;;;1.3;0.7;;;;;;;17.21;75.71875;943.2567;;;;
2020/09/07 09:37:08;;;;;;;0.9;0.7;;;;;;;17.37;74.22754;943.2556;;;;
2020/09/07 09:39:34;;;;;;;1;0.7;;;;;;;17.32;74.73047;943.2665;;;;
2020/09/07 09:41:59;;;;;;;0.7;0.6;;;;;;;17.33;75.17188;943.2512;;;;
2020/09/07 09:44:26;;;;;;;1;0.7;;;;;;;17.38;74.70605;943.2693;;;;
2020/09/07 09:46:51;;;;;;;0.5;0.4;;;;;;;17.4;74.36133;943.2989;;;;
2020/09/07 09:49:17;;;;;;;0.7;0.7;;;;;;;17.38;74.76367;943.3152;;;;
2020/09/07 09:51:42;;;;;;;1.2;0.5;;;;;;;17.38;74.12598;943.3635;;;;
2020/09/07 09:54:09;;;;;;;0.7;0.6;;;;;;;17.48;75.08301;943.3621;;;;
2020/09/07 09:56:34;;;;;;;0.6;0.6;;;;;;;17.31;74.36719;943.3906;;;;
2020/09/07 09:59:00;;;;;;;0.7;0.5;;;;;;;17.25;74.42773;943.4089;;;;
2020/09/07 10:01:25;;;;;;;1;0.8;;;;;;;17.33;75.11426;943.4621;;;;
2020/09/07 10:03:50;;;;;;;1;0.9;;;;;;;16.99;76.13379;943.4625;;;;
2020/09/07 10:06:16;;;;;;;2.3;1.4;;;;;;;16.82;76.40625;943.4877;;;;
2020/09/07 10:08:41;;;;;;;1;0.8;;;;;;;16.94;75.38379;943.5231;;;;
2020/09/07 10:11:07;;;;;;;0.8;0.7;;;;;;;16.91;76.68652;943.5804;;;;
2020/09/07 10:13:32;;;;;;;1.2;0.8;;;;;;;16.67;78.94824;943.5447;;;;
2020/09/07 10:15:59;;;;;;;1;0.9;;;;;;;16.57;77.63574;943.5075;;;;
2020/09/07 10:18:25;;;;;;;2.5;0.8;;;;;;;16.73;78.36914;943.525;;;;
2020/09/07 10:20:52;;;;;;;0.7;0.5;;;;;;;16.76;77.59961;943.5305;;;;
2020/09/07 10:23:17;;;;;;;1.8;0.8;;;;;;;16.8;77.87305;943.5544;;;;
2020/09/07 10:25:44;;;;;;;2.8;1;;;;;;;16.64;77.59082;943.6643;;;;
2020/09/07 10:28:09;;;;;;;2.2;1;;;;;;;16.57;76.66211;943.6498;;;;
2020/09/07 10:30:34;;;;;;;0.6;0.5;;;;;;;16.91;76.60547;943.6103;;;;
2020/09/07 10:32:59;;;;;;;1.2;1;;;;;;;17.08;77.12305;943.6135;;;;
2020/09/07 10:35:25;;;;;;;1.7;1;;;;;;;17.13;75.23145;943.5969;;;;
2020/09/07 10:37:50;;;;;;;1.1;0.7;;;;;;;17.47;75.40625;943.5933;;;;
2020/09/07 10:40:18;;;;;;;1.4;0.7;;;;;;;17.72;72.61523;943.6071;;;;
2020/09/07 10:42:43;;;;;;;1;0.7;;;;;;;17.6;73.12988;943.6179;;;;
2020/09/07 10:45:09;;;;;;;4;0.9;;;;;;;17.91;72.45117;943.6328;;;;
2020/09/07 10:47:34;;;;;;;1.4;0.7;;;;;;;18.12;72.54199;943.6639;;;;
2020/09/07 10:49:59;;;;;;;0.4;0.4;;;;;;;18.24;70.05078;943.6701;;;;
2020/09/07 10:52:24;;;;;;;0.9;0.8;;;;;;;18.36;69.59473;943.6323;;;;
2020/09/07 10:54:49;;;;;;;1;0.7;;;;;;;18.68;69.77246;943.6437;;;;
2020/09/07 10:57:14;;;;;;;1.1;0.7;;;;;;;18.95;68.76758;943.6436;;;;
2020/09/07 10:59:40;;;;;;;1.7;0.9;;;;;;;18.95;67.89648;943.6371;;;;
2020/09/07 11:02:06;;;;;;;1.2;0.7;;;;;;;19.04;67.57129;943.6547;;;;
2020/09/07 11:04:31;;;;;;;0.9;0.6;;;;;;;19.14;68.30859;943.6525;;;;
2020/09/07 11:06:56;;;;;;;0.9;0.8;;;;;;;19.17;67.91602;943.7917;;;;
2020/09/07 11:09:21;;;;;;;0.6;0.6;;;;;;;19.25;66.9043;943.778;;;;
2020/09/07 11:11:52;;;;;;;1.5;0.7;;;;;;;19.33;66.22852;943.7799;;;;
2020/09/07 11:14:18;;;;;;;2.9;0.9;;;;;;;19.25;67.33594;943.7269;;;;
2020/09/07 11:16:43;;;;;;;1.4;0.8;;;;;;;19.16;67.41406;943.7281;;;;
2020/09/07 11:19:10;;;;;;;1.2;0.6;;;;;;;19.07;66.73633;943.7762;;;;
2020/09/07 11:21:35;;;;;;;1.1;0.9;;;;;;;19.21;68.02832;943.8566;;;;
2020/09/07 11:24:01;;;;;;;1.6;0.6;;;;;;;19.31;67.64746;943.8803;;;;
2020/09/07 11:26:26;;;;;;;1.1;0.8;;;;;;;19.27;65.63867;943.8664;;;;
2020/09/07 11:28:51;;;;;;;1.2;0.9;;;;;;;19.3;66.57324;943.8199;;;;
2020/09/07 11:31:16;;;;;;;0.9;0.7;;;;;;;19.15;67.22656;943.8323;;;;
2020/09/07 11:33:41;;;;;;;1;0.9;;;;;;;19.13;67.33984;943.8036;;;;
2020/09/07 11:36:06;;;;;;;2;1.2;;;;;;;18.99;66.1543;943.8085;;;;
2020/09/07 11:38:31;;;;;;;1.2;0.7;;;;;;;18.89;66.80273;943.8511;;;;
2020/09/07 11:40:57;;;;;;;1.2;0.8;;;;;;;18.78;67.53223;943.8119;;;;
2020/09/07 11:43:22;;;;;;;1.4;0.8;;;;;;;18.8;67.84961;943.7914;;;;
2020/09/07 11:45:51;;;;;;;0.8;0.6;;;;;;;18.67;68.13086;943.7367;;;;
2020/09/07 11:48:16;;;;;;;1;0.8;;;;;;;18.64;68.75488;943.7371;;;;
2020/09/07 11:50:42;;;;;;;1.2;0.7;;;;;;;18.55;68.69434;943.7683;;;;
2020/09/07 11:53:07;;;;;;;3;1;;;;;;;18.58;68.98926;943.8325;;;;
2020/09/07 11:55:34;;;;;;;1;0.8;;;;;;;18.51;70.31445;943.8116;;;;
2020/09/07 11:57:59;;;;;;;1.4;1;;;;;;;18.6;69.14258;943.8798;;;;
2020/09/07 12:00:29;;;;;;;0.5;0.5;;;;;;;18.61;69.21387;943.8635;;;;
2020/09/07 12:02:54;;;;;;;0.7;0.7;;;;;;;18.52;70.13184;943.925;;;;
2020/09/07 12:05:20;;;;;;;1.2;0.8;;;;;;;18.5;70.31445;943.8753;;;;
2020/09/07 12:07:46;;;;;;;1.8;1.2;;;;;;;18.55;69.55469;943.8175;;;;
2020/09/07 12:10:11;;;;;;;1;0.9;;;;;;;18.51;69.76855;943.939;;;;
2020/09/07 12:12:38;;;;;;;1;0.8;;;;;;;18.36;70.19922;943.8961;;;;
2020/09/07 12:15:03;;;;;;;1.7;1.1;;;;;;;18.28;70.41699;943.9277;;;;
2020/09/07 12:17:30;;;;;;;1.4;1;;;;;;;18.22;70.6875;943.9434;;;;
2020/09/07 12:19:55;;;;;;;1;0.9;;;;;;;18.3;69.78223;943.963;;;;
2020/09/07 12:22:21;;;;;;;1.2;1;;;;;;;18.31;68.52832;943.9838;;;;
2020/09/07 12:24:46;;;;;;;3.5;1.1;;;;;;;18.3;70.54883;943.975;;;;
2020/09/07 12:27:11;;;;;;;1.5;1;;;;;;;18.42;69.5459;943.986;;;;
2020/09/07 12:29:38;;;;;;;3;1;;;;;;;18.55;69.37988;943.9716;;;;
2020/09/07 12:32:03;;;;;;;3.1;1.3;;;;;;;18.63;69.42676;943.9793;;;;
2020/09/07 12:35:52;;;;;;;0.9;0.7;;;;;;;18.55;68.93848;943.9224;;;;
2020/09/07 12:39:02;;;;;;;1;0.8;;;;;;;18.49;68.56836;943.9191;;;;
2020/09/07 12:42:11;;;;;;;1.3;1;;;;;;;18.5;68.74512;943.9182;;;;
2020/09/07 12:44:46;;;;;;;1.5;1;;;;;;;18.53;68.92383;943.992;;;;
2020/09/07 12:47:18;;;;;;;1.6;1;;;;;;;18.34;70.3457;943.9551;;;;
2020/09/07 12:49:45;;;;;;;2.3;1.3;;;;;;;18.42;69.68457;944.0478;;;;
2020/09/07 12:52:10;;;;;;;1.9;1;;;;;;;18.41;69.75293;944.0204;;;;
2020/09/07 12:54:44;;;;;;;2.5;1.1;;;;;;;18.48;69.05469;943.9894;;;;
2020/09/07 12:57:11;;;;;;;0.9;0.8;;;;;;;18.57;70.52246;944.0359;;;;
2020/09/07 12:59:36;;;;;;;2.2;1.2;;;;;;;18.64;69.11523;943.9992;;;;
2020/09/07 13:02:12;;;;;;;1.9;1;;;;;;;18.73;67.8252;943.9983;;;;
2020/09/07 13:04:40;;;;;;;1.9;1.1;;;;;;;18.73;69.51367;944.1523;;;;
2020/09/07 13:07:04;;;;;;;2.3;1.3;;;;;;;18.77;69.04199;944.0928;;;;
2020/09/07 13:09:32;;;;;;;4.1;1.2;;;;;;;18.82;68.45703;944.1255;;;;
2020/09/07 13:11:57;;;;;;;2.2;1.2;;;;;;;18.8;69.35059;944.0392;;;;
2020/09/07 13:14:24;;;;;;;3.2;0.8;;;;;;;18.71;69.2998;944.0492;;;;
2020/09/07 13:16:48;;;;;;;2.2;1;;;;;;;18.63;69.81152;944.1358;;;;
2020/09/07 13:19:12;;;;;;;4;1;;;;;;;18.8;67.88379;944.0464;;;;
2020/09/07 13:21:38;;;;;;;2.9;1.2;;;;;;;18.8;68.53613;944.0376;;;;
2020/09/07 13:24:05;;;;;;;1.4;1.1;;;;;;;18.77;68.13477;943.9686;;;;
2020/09/07 13:26:30;;;;;;;2.3;1.2;;;;;;;18.65;69.21094;944.012;;;;
2020/09/07 13:28:56;;;;;;;2.7;1.4;;;;;;;18.54;69.1582;944.0369;;;;
2020/09/07 13:31:21;;;;;;;1.8;1;;;;;;;18.4;70.14648;944.0416;;;;
2020/09/07 13:33:47;;;;;;;1.7;1.3;;;;;;;18.22;69.42188;944.0065;;;;
2020/09/07 13:36:12;;;;;;;3.1;1.3;;;;;;;18.26;70.53027;943.9892;;;;
2020/09/07 13:38:38;;;;;;;0.7;0.7;;;;;;;18.13;71.3584;943.9185;;;;
2020/09/07 13:41:03;;;;;;;2.1;1.6;;;;;;;18.09;73.10645;943.9213;;;;
2020/09/07 13:43:28;;;;;;;1.1;0.8;;;;;;;18.08;72.68555;944.0222;;;;
2020/09/07 13:45:55;;;;;;;3;1.2;;;;;;;18;71.73145;944.113;;;;
2020/09/07 13:48:21;;;;;;;1.4;1.1;;;;;;;18.01;70.85254;944.1016;;;;
2020/09/07 13:50:46;;;;;;;1.3;1;;;;;;;18.13;71.66016;944.1289;;;;
2020/09/07 13:53:11;;;;;;;1.8;1.2;;;;;;;18.14;70.13965;944.1562;;;;
2020/09/07 13:55:37;;;;;;;2.5;1.5;;;;;;;17.98;71.12598;944.1494;;;;
2020/09/07 13:58:02;;;;;;;2.2;1.4;;;;;;;18.12;70.48633;944.2151;;;;
2020/09/07 14:00:29;;;;;;;3.1;1.5;;;;;;;18.12;71.40332;944.2378;;;;
2020/09/07 14:02:54;;;;;;;2.8;1.6;;;;;;;18.15;69.88574;944.1674;;;;
2020/09/07 14:05:19;;;;;;;4.7;1.5;;;;;;;17.65;71.41992;944.1735;;;;
2020/09/07 14:07:49;;;;;;;2.3;1.3;;;;;;;17.8;70.29492;944.2265;;;;
2020/09/07 14:10:16;;;;;;;2.3;1.2;;;;;;;17.9;70.52051;944.2267;;;;
2020/09/07 14:12:41;;;;;;;1.7;1.2;;;;;;;17.73;70.78418;944.2569;;;;
2020/09/07 14:15:12;;;;;;;2.5;1.4;;;;;;;17.72;71.90625;944.2039;;;;
2020/09/07 14:17:38;;;;;;;1.9;1.4;;;;;;;17.9;70.53027;944.2533;;;;
2020/09/07 14:20:03;;;;;;;2.6;1.5;;;;;;;17.96;69.80859;944.335;;;;
2020/09/07 14:22:33;;;;;;;2.1;1.1;;;;;;;18.03;69.56348;944.3088;;;;
2020/09/07 14:24:58;;;;;;;1.5;1;;;;;;;18.05;69.34668;944.3054;;;;
2020/09/07 14:27:23;;;;;;;1.8;1.1;;;;;;;17.89;70.07715;944.2374;;;;
2020/09/07 14:29:48;;;;;;;3.2;1.2;;;;;;;17.88;71.79297;944.2575;;;;
2020/09/07 14:32:13;;;;;;;1.8;1.3;;;;;;;17.71;71.23145;944.2483;;;;
2020/09/07 14:34:39;;;;;;;1.6;1.1;;;;;;;17.86;71.59473;944.2867;;;;
2020/09/07 14:37:06;;;;;;;3;1.7;;;;;;;17.85;71.2666;944.3109;;;;
2020/09/07 14:39:31;;;;;;;2.4;1.7;;;;;;;17.82;70.99512;944.3085;;;;
2020/09/07 14:41:56;;;;;;;1.4;1.2;;;;;;;17.75;73.43262;944.3212;;;;
2020/09/07 14:44:21;;;;;;;1;0.9;;;;;;;17.61;73.76953;944.3636;;;;
2020/09/07 14:46:50;;;;;;;2.4;1.6;;;;;;;17.43;74.94531;944.3376;;;;
2020/09/07 14:49:15;;;;;;;3.5;1.6;;;;;;;17.43;74.99219;944.3336;;;;
2020/09/07 14:51:48;;;;;;;2.2;1.4;;;;;;;17.62;73.2373;944.3228;;;;
2020/09/07 14:54:13;;;;;;;2.2;1.3;;;;;;;17.69;73.87598;944.2395;;;;
2020/09/07 14:56:38;;;;;;;1.7;1.5;;;;;;;17.7;73.7959;944.3788;;;;
2020/09/07 14:59:03;;;;;;;2.4;1.4;;;;;;;17.61;72.74805;944.4385;;;;
2020/09/07 15:01:28;;;;;;;5.5;1.5;;;;;;;17.44;73.49707;944.4462;;;;
2020/09/07 15:03:53;;;;;;;2.2;1.5;;;;;;;17.45;74.02051;944.4655;;;;
2020/09/07 15:06:18;;;;;;;5.9;1.8;;;;;;;17.57;73.93652;944.4977;;;;
2020/09/07 15:08:44;;;;;;;3.6;1.6;;;;;;;17.57;72.46387;944.5064;;;;
2020/09/07 15:11:10;;;;;;;10.1;1.7;;;;;;;17.57;72.69434;944.5201;;;;
2020/09/07 15:13:35;;;;;;;2.7;1.4;;;;;;;17.54;72.89844;944.4963;;;;
2020/09/07 15:16:00;;;;;;;5;2;;;;;;;17.62;72.75977;944.4967;;;;
2020/09/07 15:18:26;;;;;;;1.8;1.4;;;;;;;17.66;72.89551;944.5078;;;;
2020/09/07 15:20:51;;;;;;;1.7;1.5;;;;;;;17.64;72.69531;944.4506;;;;
2020/09/07 15:23:18;;;;;;;2.6;1.5;;;;;;;17.66;72.24512;944.3925;;;;
2020/09/07 15:25:43;;;;;;;3.6;2.2;;;;;;;17.58;72.02344;944.4709;;;;
2020/09/07 15:28:08;;;;;;;2;1.6;;;;;;;17.54;72.35352;944.5115;;;;
2020/09/07 15:30:33;;;;;;;2.1;1.5;;;;;;;17.47;72.63281;944.5128;;;;
2020/09/07 15:32:58;;;;;;;3.4;1.8;;;;;;;17.49;72.62305;944.4829;;;;
2020/09/07 15:35:23;;;;;;;3.4;1.7;;;;;;;17.44;73.42773;944.575;;;;
2020/09/07 15:37:48;;;;;;;5.8;1.5;;;;;;;17.37;73.06738;944.5897;;;;
2020/09/07 15:40:14;;;;;;;1.8;1.3;;;;;;;17.47;73.58301;944.5419;;;;